Time;durP1;ratioP1;P1;durP2;ratioP2;P2;SDS_P1;SDS_P2;PMS_P1;PMS_P2;Temp;Humidity;BMP_temperature;BMP_pressure;BME280_temperature;BME280_humidity;BME280_pressure;Samples;Min_cycle;Max_cycle;Signal;HPM_P1;HPM_P2
2022/12/23 00:02:17;;;;;;;15.40;8.60;;;;;;;11.45;76.32;100395.77;106024;1303;21970;-60
2022/12/23 00:04:43;;;;;;;13.60;8.10;;;;;;;11.47;76.21;100395.23;105949;1306;21998;-60
2022/12/23 00:07:09;;;;;;;16.20;9.90;;;;;;;11.53;76.01;100396.01;105986;1306;21960;-60
2022/12/23 00:09:35;;;;;;;13.30;7.50;;;;;;;11.57;75.72;100395.23;105943;1301;21963;-60
2022/12/23 00:15:05;;;;;;;13.70;7.40;;;;;;;11.81;74.35;100394.49;106064;1293;21956;-65
2022/12/23 00:17:44;;;;;;;15.30;9.00;;;;;;;11.77;73.81;100396.66;105993;1303;21978;-60
2022/12/23 00:20:12;;;;;;;17.50;9.30;;;;;;;11.66;74.03;100396.16;106066;1300;21996;-65
2022/12/23 00:25:39;;;;;;;15.00;8.60;;;;;;;11.57;73.96;100391.20;106031;1306;22428;-64
2022/12/23 00:28:15;;;;;;;13.30;8.80;;;;;;;11.51;74.19;100390.95;106011;1304;21978;-60
2022/12/23 00:30:49;;;;;;;14.70;8.40;;;;;;;11.48;74.00;100392.04;106114;1303;21960;-64
2022/12/23 00:33:16;;;;;;;15.50;8.90;;;;;;;11.57;73.67;100388.92;105975;1304;21959;-61
2022/12/23 00:35:43;;;;;;;16.70;9.00;;;;;;;11.58;73.28;100386.09;106000;1306;21988;-60
2022/12/23 00:38:08;;;;;;;18.40;9.60;;;;;;;11.57;72.88;100378.19;106061;1306;21963;-60
2022/12/23 00:43:19;;;;;;;13.10;8.90;;;;;;;11.22;73.86;100375.23;105963;1306;21957;-64
2022/12/23 00:45:45;;;;;;;14.90;8.30;;;;;;;11.13;74.01;100371.31;105315;1303;1002652;-64
2022/12/23 00:50:55;;;;;;;13.50;8.40;;;;;;;11.08;74.30;100364.71;106024;1304;21962;-63
2022/12/23 00:53:22;;;;;;;13.00;9.10;;;;;;;11.02;74.33;100363.05;105957;1306;21965;-59
2022/12/23 00:55:47;;;;;;;16.50;9.10;;;;;;;11.03;74.19;100361.62;106126;1303;21959;-63
2022/12/23 00:58:14;;;;;;;23.60;10.50;;;;;;;11.12;73.88;100359.23;106149;1303;22416;-62
2022/12/23 01:06:11;;;;;;;14.00;9.20;;;;;;;10.97;73.47;100357.49;106082;1303;21966;-64
2022/12/23 01:15:29;;;;;;;15.90;10.30;;;;;;;8.21;96.99;100360.16;105719;1301;557867;-61
2022/12/23 01:17:55;;;;;;;15.50;9.50;;;;;;;10.07;84.27;100340.68;105810;1305;21968;-64
2022/12/23 01:20:20;;;;;;;14.10;9.20;;;;;;;10.41;79.97;100333.14;105676;1306;21966;-61
2022/12/23 01:22:46;;;;;;;13.10;8.60;;;;;;;10.44;78.97;100332.93;105714;1306;21967;-64
2022/12/23 01:25:12;;;;;;;10.90;8.00;;;;;;;10.56;78.28;100332.79;105773;1306;21971;-62
2022/12/23 01:27:38;;;;;;;13.10;8.70;;;;;;;10.69;77.23;100330.85;105473;1304;379219;-64
2022/12/23 01:30:05;;;;;;;15.00;8.60;;;;;;;10.60;77.26;100328.52;106112;1303;21959;-63
2022/12/23 01:32:31;;;;;;;16.40;9.70;;;;;;;10.65;76.96;100328.09;106163;1303;21977;-64
2022/12/23 01:34:57;;;;;;;12.40;8.80;;;;;;;10.76;76.20;100326.02;106091;1303;21965;-64
2022/12/23 01:37:23;;;;;;;12.50;9.00;;;;;;;10.93;75.73;100327.02;106014;1297;21964;-63
2022/12/23 01:39:50;;;;;;;14.70;9.30;;;;;;;11.03;74.98;100329.33;105980;1306;23092;-61
2022/12/23 01:45:35;;;;;;;19.50;12.10;;;;;;;10.98;74.57;100330.45;106068;1303;21962;-63
2022/12/23 01:48:08;;;;;;;20.40;12.70;;;;;;;11.03;74.41;100332.13;105659;1304;21961;-63
2022/12/23 01:50:37;;;;;;;31.80;18.10;;;;;;;11.04;74.32;100332.30;106046;1304;22003;-61
2022/12/23 01:53:15;;;;;;;24.30;16.80;;;;;;;11.05;74.11;100335.80;105984;1304;21959;-60
2022/12/23 01:55:44;;;;;;;25.20;15.90;;;;;;;11.01;73.78;100336.55;105986;1306;21968;-63
2022/12/23 01:58:24;;;;;;;25.00;16.90;;;;;;;10.94;74.11;100338.76;106039;1306;21974;-63
2022/12/23 02:03:43;;;;;;;25.40;15.90;;;;;;;10.93;74.30;100341.22;105808;1306;21935;-61
2022/12/23 02:09:16;;;;;;;16.60;12.60;;;;;;;11.09;73.93;100337.48;106124;1303;21968;-63
2022/12/23 02:12:01;;;;;;;14.70;10.70;;;;;;;11.06;73.98;100336.99;105790;1304;22002;-61
2022/12/23 02:17:56;;;;;;;15.90;10.80;;;;;;;10.98;74.25;100337.30;106029;1306;22027;-63
2022/12/23 02:20:56;;;;;;;19.50;11.30;;;;;;;11.06;73.97;100334.36;106070;1303;21995;-61
2022/12/23 02:23:50;;;;;;;18.40;12.10;;;;;;;11.07;73.57;100335.41;105996;1305;21968;-61
2022/12/23 02:26:18;;;;;;;19.50;12.80;;;;;;;11.03;73.55;100337.39;106066;1300;21957;-63
2022/12/23 02:28:53;;;;;;;21.80;13.20;;;;;;;10.93;73.53;100338.42;106123;1303;21960;-60
2022/12/23 02:31:22;;;;;;;16.00;11.70;;;;;;;10.93;73.64;100334.91;106121;1300;22004;-63
2022/12/23 02:33:50;;;;;;;15.30;10.60;;;;;;;10.95;73.66;100333.84;105990;1301;22003;-63
2022/12/23 02:36:25;;;;;;;15.20;10.70;;;;;;;10.95;73.64;100332.26;106078;1303;21964;-61
2022/12/23 02:39:11;;;;;;;14.00;10.20;;;;;;;10.93;73.51;100331.73;106151;1303;22021;-63
2022/12/23 02:41:39;;;;;;;15.20;10.30;;;;;;;10.94;73.42;100329.27;106139;1303;21964;-61
2022/12/23 02:44:18;;;;;;;14.70;10.00;;;;;;;10.93;73.43;100327.55;106088;1302;21943;-62
2022/12/23 02:46:46;;;;;;;19.70;12.80;;;;;;;10.91;73.55;100324.92;106552;1302;21983;-63
2022/12/23 02:49:31;;;;;;;16.10;11.30;;;;;;;10.90;73.63;100324.94;105999;1296;21956;-61
2022/12/23 02:51:56;;;;;;;15.30;10.60;;;;;;;10.92;73.42;100324.56;105743;1303;21951;-62
2022/12/23 02:54:29;;;;;;;14.40;10.10;;;;;;;10.96;73.09;100328.02;105787;1304;21958;-60
2022/12/23 02:56:55;;;;;;;19.90;12.20;;;;;;;10.99;72.92;100329.91;105676;1305;22017;-60
2022/12/23 02:59:22;;;;;;;15.50;11.00;;;;;;;11.00;72.87;100328.48;105730;1306;21950;-62
2022/12/23 03:01:48;;;;;;;16.60;10.90;;;;;;;11.00;72.74;100325.67;105983;1306;22019;-61
2022/12/23 03:04:14;;;;;;;18.30;11.90;;;;;;;10.99;72.51;100323.74;105855;1306;21985;-60
2022/12/23 03:06:41;;;;;;;17.00;11.40;;;;;;;10.99;72.49;100325.70;105934;1306;21956;-62
2022/12/23 03:09:07;;;;;;;18.20;12.40;;;;;;;10.97;72.35;100325.36;106001;1306;21966;-60
2022/12/23 03:11:49;;;;;;;15.50;11.60;;;;;;;10.94;72.55;100329.10;105944;1306;22064;-61
2022/12/23 03:14:27;;;;;;;18.30;12.80;;;;;;;10.91;72.28;100327.39;105729;1306;21951;-61
2022/12/23 03:17:08;;;;;;;18.30;13.40;;;;;;;10.91;72.08;100326.86;104357;1303;1002682;-61
2022/12/23 03:19:53;;;;;;;18.30;12.40;;;;;;;10.88;71.82;100328.83;106102;1303;21964;-60
2022/12/23 03:22:31;;;;;;;16.30;12.30;;;;;;;10.84;71.82;100328.19;105770;1296;21960;-62
2022/12/23 03:25:02;;;;;;;17.30;12.10;;;;;;;10.78;71.95;100329.52;106041;1303;21960;-60
2022/12/23 03:27:28;;;;;;;15.50;11.00;;;;;;;10.70;72.05;100328.02;106148;1303;21954;-60
2022/12/23 03:30:00;;;;;;;16.30;11.40;;;;;;;10.56;72.59;100329.98;106140;1303;23115;-63
2022/12/23 03:32:27;;;;;;;19.50;12.40;;;;;;;10.51;72.79;100329.16;105986;1304;21967;-62
2022/12/23 03:34:54;;;;;;;17.00;11.00;;;;;;;10.48;73.10;100330.07;106023;1303;21959;-62
2022/12/23 03:37:19;;;;;;;18.80;14.00;;;;;;;10.44;73.31;100329.42;106027;1302;21953;-60
2022/12/23 03:39:56;;;;;;;18.30;12.80;;;;;;;10.44;73.43;100330.30;105753;1304;21969;-62
2022/12/23 03:42:28;;;;;;;20.00;15.60;;;;;;;10.40;73.28;100325.59;106075;1303;23136;-60
2022/12/23 03:44:54;;;;;;;19.10;14.10;;;;;;;10.35;73.20;100321.09;106049;1303;24330;-62
2022/12/23 03:47:24;;;;;;;18.60;13.60;;;;;;;10.33;73.35;100322.70;105736;1303;21954;-63
2022/12/23 03:50:03;;;;;;;17.40;12.40;;;;;;;10.32;73.43;100320.95;105803;1304;21960;-62
2022/12/23 03:52:32;;;;;;;17.20;12.50;;;;;;;10.30;73.53;100319.20;106020;1303;23091;-63
2022/12/23 03:55:00;;;;;;;;;;;;;;;10.28;73.60;100319.41;106001;1303;23126;-61
2022/12/23 03:57:51;;;;;;;17.10;12.70;;;;;;;10.28;73.80;100318.18;106123;1299;21978;-63
2022/12/23 04:00:17;;;;;;;16.50;12.60;;;;;;;10.19;74.21;100319.67;106012;1292;21958;-61
2022/12/23 04:03:07;;;;;;;19.60;13.50;;;;;;;10.23;73.98;100317.71;105721;1304;21967;-63
2022/12/23 04:05:38;;;;;;;19.20;13.10;;;;;;;10.25;73.96;100317.17;106071;1303;21968;-63
2022/12/23 04:08:26;;;;;;;19.20;12.90;;;;;;;10.32;73.83;100318.84;106079;1303;21959;-63
2022/12/23 04:10:52;;;;;;;17.30;11.60;;;;;;;10.39;73.64;100316.84;105302;1303;1002353;-62
2022/12/23 04:13:17;;;;;;;15.20;11.40;;;;;;;10.42;73.54;100317.69;105704;1304;21972;-62
2022/12/23 04:15:43;;;;;;;17.90;11.80;;;;;;;10.37;73.80;100316.85;105981;1304;21957;-62
2022/12/23 04:18:09;;;;;;;17.50;11.80;;;;;;;10.35;73.81;100315.30;106018;1303;22055;-61
2022/12/23 04:20:37;;;;;;;17.30;11.90;;;;;;;10.25;74.19;100315.75;106032;1303;21954;-61
2022/12/23 04:23:03;;;;;;;16.70;12.10;;;;;;;10.21;74.24;100315.97;105987;1303;22600;-63
2022/12/23 04:25:29;;;;;;;17.70;12.80;;;;;;;10.21;74.29;100314.57;106002;1303;21980;-62
2022/12/23 04:27:54;;;;;;;18.70;13.40;;;;;;;10.18;74.52;100314.42;106019;1303;22088;-61
2022/12/23 04:30:20;;;;;;;16.70;12.80;;;;;;;10.24;74.42;100316.83;106025;1303;21964;-60
2022/12/23 04:32:49;;;;;;;18.10;13.10;;;;;;;10.26;74.47;100315.05;105987;1302;21957;-63
2022/12/23 04:35:14;;;;;;;17.10;12.90;;;;;;;10.32;74.08;100310.77;106118;1303;21964;-63
2022/12/23 04:37:40;;;;;;;17.70;13.30;;;;;;;10.31;74.27;100308.50;106060;1297;21979;-61
2022/12/23 04:40:07;;;;;;;19.30;13.50;;;;;;;10.35;74.09;100312.48;106002;1301;22424;-61
2022/12/23 04:42:33;;;;;;;20.60;15.30;;;;;;;10.33;74.00;100314.27;106010;1303;21959;-62
2022/12/23 04:44:58;;;;;;;19.20;14.00;;;;;;;10.32;73.94;100315.68;105982;1296;22084;-63
2022/12/23 04:47:24;;;;;;;19.00;13.50;;;;;;;10.34;73.85;100314.26;105960;1301;22001;-60
2022/12/23 04:49:50;;;;;;;18.20;14.20;;;;;;;10.36;73.86;100312.48;105957;1296;22005;-62
2022/12/23 04:52:15;;;;;;;17.40;11.60;;;;;;;10.39;73.80;100312.45;106027;1303;21954;-60
2022/12/23 04:54:41;;;;;;;17.00;12.70;;;;;;;10.41;73.69;100310.33;105996;1302;22098;-61
2022/12/23 04:57:06;;;;;;;20.10;14.10;;;;;;;10.41;73.60;100313.14;106035;1303;21968;-63
2022/12/23 04:59:32;;;;;;;14.90;11.30;;;;;;;10.44;73.62;100311.71;105991;1296;21968;-63
2022/12/23 05:01:58;;;;;;;18.30;11.00;;;;;;;10.48;73.59;100313.58;106113;1303;21967;-63
2022/12/23 05:04:24;;;;;;;15.70;11.80;;;;;;;10.52;73.41;100316.33;106081;1299;21966;-61
2022/12/23 05:06:50;;;;;;;17.40;12.20;;;;;;;10.56;73.50;100320.68;106091;1303;22017;-61
2022/12/23 05:09:17;;;;;;;16.40;11.80;;;;;;;10.61;73.38;100319.90;105838;1304;21961;-62
2022/12/23 05:11:42;;;;;;;16.20;11.40;;;;;;;10.62;73.45;100317.42;105784;1306;23756;-63
2022/12/23 05:14:09;;;;;;;17.50;11.90;;;;;;;10.66;73.39;100316.85;106017;1303;22824;-62
2022/12/23 05:16:35;;;;;;;18.40;12.20;;;;;;;10.68;73.47;100314.02;105789;1304;21960;-62
2022/12/23 05:19:02;;;;;;;14.40;11.20;;;;;;;10.59;74.16;100312.21;105973;1306;21957;-63
2022/12/23 05:21:28;;;;;;;17.90;11.60;;;;;;;10.59;74.59;100306.95;106056;1304;21960;-63
2022/12/23 05:23:54;;;;;;;15.80;11.30;;;;;;;10.62;74.61;100306.55;106116;1303;21967;-64
2022/12/23 05:26:19;;;;;;;19.50;13.20;;;;;;;10.65;74.80;100316.16;105994;1304;21960;-65
2022/12/23 05:28:45;;;;;;;22.10;14.70;;;;;;;10.65;75.22;100322.14;106091;1303;21961;-62
2022/12/23 05:31:11;;;;;;;25.90;19.40;;;;;;;10.64;75.33;100321.26;106074;1303;21959;-63
2022/12/23 05:33:36;;;;;;;25.40;18.40;;;;;;;10.64;75.40;100322.14;105237;1307;1003307;-64
2022/12/23 05:36:03;;;;;;;22.80;16.20;;;;;;;10.66;75.30;100324.74;106017;1303;22435;-61
2022/12/23 05:38:29;;;;;;;21.30;15.40;;;;;;;10.68;75.55;100329.10;106151;1299;21977;-62
2022/12/23 05:40:54;;;;;;;19.40;14.80;;;;;;;10.68;75.74;100333.33;104968;1306;1002420;-64
2022/12/23 05:43:20;;;;;;;20.10;15.10;;;;;;;10.70;75.58;100335.73;105943;1297;21951;-62
2022/12/23 05:45:46;;;;;;;18.70;13.80;;;;;;;10.75;75.51;100339.92;106085;1303;21964;-63
2022/12/23 05:48:12;;;;;;;22.20;14.40;;;;;;;10.76;75.49;100336.92;106136;1303;22190;-62
2022/12/23 05:50:38;;;;;;;22.20;15.70;;;;;;;10.78;75.49;100336.88;106096;1293;21961;-62
2022/12/23 05:53:04;;;;;;;23.00;15.30;;;;;;;10.83;75.40;100341.54;105996;1303;21960;-62
2022/12/23 05:55:29;;;;;;;20.70;15.20;;;;;;;10.82;75.45;100341.22;106081;1304;21960;-64
2022/12/23 05:57:55;;;;;;;21.50;14.80;;;;;;;10.80;75.67;100345.09;106034;1303;22882;-64
2022/12/23 06:00:21;;;;;;;20.20;15.20;;;;;;;10.80;75.58;100348.97;105987;1295;22025;-64
2022/12/23 06:02:47;;;;;;;22.00;15.00;;;;;;;10.78;75.83;100351.62;106012;1303;22003;-63
2022/12/23 06:05:13;;;;;;;22.30;15.10;;;;;;;10.78;75.91;100354.08;106002;1303;21956;-63
2022/12/23 06:07:39;;;;;;;23.10;15.40;;;;;;;10.85;75.58;100362.23;106013;1302;21960;-61
2022/12/23 06:10:08;;;;;;;20.70;14.50;;;;;;;10.90;75.50;100373.58;106042;1304;21956;-62
2022/12/23 06:12:34;;;;;;;22.70;16.70;;;;;;;10.93;75.44;100370.55;106021;1303;22022;-63
2022/12/23 06:15:00;;;;;;;23.30;17.00;;;;;;;10.91;75.74;100372.67;106036;1303;22804;-63
2022/12/23 06:17:26;;;;;;;22.90;16.80;;;;;;;10.91;75.85;100368.28;106096;1304;22013;-63
2022/12/23 06:19:52;;;;;;;24.60;17.40;;;;;;;10.84;76.28;100364.35;106110;1303;21957;-64
2022/12/23 06:22:20;;;;;;;22.40;16.30;;;;;;;10.87;76.06;100355.88;106012;1303;21957;-63
2022/12/23 06:24:46;;;;;;;24.50;17.60;;;;;;;10.90;76.05;100357.94;106047;1304;21998;-63
2022/12/23 06:27:12;;;;;;;23.40;16.30;;;;;;;10.90;76.13;100357.94;106164;1295;21954;-63
2022/12/23 06:29:38;;;;;;;23.90;16.90;;;;;;;10.95;76.17;100357.52;106071;1304;21960;-62
2022/12/23 06:32:04;;;;;;;24.00;16.50;;;;;;;11.00;76.07;100352.54;106075;1298;23603;-63
2022/12/23 06:34:30;;;;;;;38.10;22.70;;;;;;;11.05;75.99;100344.21;106051;1293;21965;-62
2022/12/23 06:36:56;;;;;;;26.60;15.30;;;;;;;11.09;75.97;100338.70;106100;1304;21957;-62
2022/12/23 06:39:22;;;;;;;21.60;14.10;;;;;;;11.10;75.90;100341.16;105966;1304;21957;-62
2022/12/23 06:41:48;;;;;;;20.50;13.40;;;;;;;11.10;75.99;100352.05;105984;1301;21953;-62
2022/12/23 06:44:14;;;;;;;20.80;13.90;;;;;;;11.11;76.03;100357.98;105273;1304;1002490;-62
2022/12/23 06:46:40;;;;;;;19.30;12.90;;;;;;;11.15;75.96;100360.41;106000;1304;23065;-63
2022/12/23 06:49:06;;;;;;;19.60;11.90;;;;;;;11.14;75.97;100360.95;106093;1303;22008;-61
2022/12/23 06:51:32;;;;;;;25.80;15.40;;;;;;;11.14;75.76;100363.23;105801;1303;21953;-62
2022/12/23 06:53:59;;;;;;;20.70;13.40;;;;;;;11.09;75.80;100364.17;106031;1304;21957;-64
2022/12/23 06:56:24;;;;;;;17.30;11.60;;;;;;;11.09;75.64;100360.86;106023;1304;21967;-62
2022/12/23 06:58:51;;;;;;;19.70;12.90;;;;;;;11.08;75.56;100360.67;105975;1304;24431;-62
2022/12/23 07:01:18;;;;;;;19.90;12.60;;;;;;;11.09;75.61;100361.02;106204;1303;21953;-62
2022/12/23 07:03:44;;;;;;;20.90;13.50;;;;;;;11.09;75.89;100361.54;106011;1303;22140;-61
2022/12/23 07:06:09;;;;;;;20.10;12.60;;;;;;;11.08;76.50;100357.70;105801;1306;22220;-65
2022/12/23 07:08:35;;;;;;;17.00;11.20;;;;;;;11.09;76.54;100362.61;106057;1308;21969;-62
2022/12/23 07:11:02;;;;;;;16.00;10.80;;;;;;;11.11;76.59;100365.55;106065;1304;21967;-64
2022/12/23 07:13:29;;;;;;;17.30;11.50;;;;;;;11.18;76.46;100362.83;106164;1304;21963;-62
2022/12/23 07:15:55;;;;;;;18.60;12.60;;;;;;;11.18;76.79;100364.75;106107;1308;21962;-61
2022/12/23 07:18:22;;;;;;;17.90;13.00;;;;;;;11.29;76.63;100361.06;105999;1307;21996;-62
2022/12/23 07:20:48;;;;;;;17.40;11.70;;;;;;;11.34;76.28;100363.09;105975;1307;21956;-64
2022/12/23 07:23:14;;;;;;;18.40;11.10;;;;;;;11.36;76.11;100364.82;106024;1308;21964;-62
2022/12/23 07:25:39;;;;;;;13.80;10.70;;;;;;;11.35;75.80;100361.85;106057;1308;22196;-61
2022/12/23 07:28:05;;;;;;;14.40;9.90;;;;;;;11.34;75.69;100370.12;106050;1306;21952;-60
2022/12/23 07:30:31;;;;;;;13.90;10.00;;;;;;;11.34;75.40;100369.95;106037;1308;21953;-62
2022/12/23 07:32:56;;;;;;;17.50;12.10;;;;;;;11.33;75.30;100366.98;106122;1308;21964;-61
2022/12/23 07:35:22;;;;;;;15.10;10.40;;;;;;;11.37;75.30;100362.88;106050;1301;21959;-62
2022/12/23 07:37:52;;;;;;;14.90;9.40;;;;;;;11.37;74.97;100366.20;105994;1299;21965;-62
2022/12/23 07:40:18;;;;;;;14.20;9.00;;;;;;;11.39;74.94;100363.72;106097;1308;23130;-65
2022/12/23 07:42:49;;;;;;;15.30;10.40;;;;;;;11.39;75.04;100367.23;106013;1304;22153;-62
2022/12/23 07:45:15;;;;;;;13.10;9.30;;;;;;;11.41;75.36;100373.70;105310;1308;1002351;-65
2022/12/23 07:47:41;;;;;;;15.80;10.30;;;;;;;11.45;75.39;100372.94;106036;1308;21965;-62
2022/12/23 07:50:07;;;;;;;14.40;10.30;;;;;;;11.50;75.39;100370.03;106053;1308;21971;-63
2022/12/23 07:52:33;;;;;;;12.30;9.00;;;;;;;11.55;75.06;100369.08;106027;1306;22088;-65
2022/12/23 07:54:59;;;;;;;11.20;8.30;;;;;;;11.63;75.20;100366.85;106024;1305;21953;-65
2022/12/23 07:57:26;;;;;;;14.80;10.50;;;;;;;11.69;75.32;100366.04;106152;1307;21956;-62
2022/12/23 07:59:51;;;;;;;15.70;11.00;;;;;;;11.74;74.99;100368.06;106056;1308;21963;-66
2022/12/23 08:02:17;;;;;;;12.50;8.60;;;;;;;11.83;75.10;100363.86;106030;1294;21950;-63
2022/12/23 08:04:43;;;;;;;13.10;9.30;;;;;;;11.90;75.18;100361.80;106083;1305;22017;-62
2022/12/23 08:07:09;;;;;;;13.70;9.20;;;;;;;11.98;75.08;100357.64;105824;1304;21954;-66
2022/12/23 08:09:37;;;;;;;12.80;9.10;;;;;;;12.06;75.16;100354.50;105977;1305;21998;-61
2022/12/23 08:12:03;;;;;;;15.10;9.50;;;;;;;12.15;75.35;100358.23;106112;1304;21931;-63
2022/12/23 08:14:28;;;;;;;12.00;8.90;;;;;;;12.26;75.25;100353.08;106031;1306;21972;-63
2022/12/23 08:16:54;;;;;;;14.40;9.80;;;;;;;12.34;75.11;100353.09;106034;1302;21972;-63
2022/12/23 08:19:20;;;;;;;11.20;8.50;;;;;;;12.40;75.26;100357.38;106055;1303;21962;-62
2022/12/23 08:21:46;;;;;;;11.20;8.50;;;;;;;12.45;75.07;100359.20;105970;1306;21962;-62
2022/12/23 08:24:11;;;;;;;10.10;8.10;;;;;;;12.45;74.77;100361.66;105982;1307;21963;-63
2022/12/23 08:26:37;;;;;;;11.00;8.50;;;;;;;12.47;74.75;100357.06;105981;1307;22419;-62
2022/12/23 08:29:02;;;;;;;11.50;8.30;;;;;;;12.51;74.76;100348.36;105700;1307;21977;-62
2022/12/23 08:31:30;;;;;;;9.80;7.90;;;;;;;12.57;74.68;100346.13;105997;1307;22005;-62
2022/12/23 08:33:56;;;;;;;9.60;7.40;;;;;;;12.61;74.64;100342.68;105966;1304;21958;-63
2022/12/23 08:36:24;;;;;;;10.60;8.00;;;;;;;12.64;74.55;100340.34;106043;1307;22023;-68
2022/12/23 08:38:52;;;;;;;10.80;7.80;;;;;;;12.67;74.48;100340.46;107039;1307;22123;-68
2022/12/23 08:41:25;;;;;;;12.60;8.60;;;;;;;12.67;74.13;100343.79;106059;1307;21956;-62
2022/12/23 08:43:51;;;;;;;12.20;8.70;;;;;;;12.74;74.49;100342.94;106089;1307;21967;-63
2022/12/23 08:46:16;;;;;;;12.20;8.80;;;;;;;12.81;74.44;100342.08;106140;1304;21954;-62
2022/12/23 08:48:42;;;;;;;9.60;7.10;;;;;;;12.87;74.19;100338.62;106085;1303;21957;-62
2022/12/23 08:51:09;;;;;;;12.40;8.00;;;;;;;12.87;73.63;100330.16;106095;1304;21965;-62
2022/12/23 08:53:36;;;;;;;10.80;8.10;;;;;;;12.88;73.73;100326.61;106167;1303;21962;-67
2022/12/23 08:56:05;;;;;;;12.80;8.80;;;;;;;12.92;73.74;100321.95;106173;1303;21960;-66
2022/12/23 08:58:34;;;;;;;11.70;8.70;;;;;;;12.94;73.33;100316.80;106168;1303;23096;-67
2022/12/23 09:01:03;;;;;;;10.80;7.90;;;;;;;13.00;73.49;100309.79;106163;1304;22076;-62
2022/12/23 09:03:29;;;;;;;10.80;7.40;;;;;;;13.04;73.11;100306.70;106167;1303;21986;-67
2022/12/23 09:05:55;;;;;;;10.50;7.40;;;;;;;13.11;73.20;100310.41;106016;1296;21962;-63
2022/12/23 13:23:57;;;;;;;24.40;18.60;;;;;;;8.67;100.00;100255.98;106680;1295;550588;-57
2022/12/23 13:26:53;;;;;;;26.00;19.40;;;;;;;11.47;97.57;100239.02;106925;1295;21969;-58
2022/12/23 13:29:48;;;;;;;25.20;18.50;;;;;;;11.96;92.82;100235.64;106474;1300;21957;-58
2022/12/23 13:32:28;;;;;;;21.10;17.40;;;;;;;12.31;89.80;100235.81;106894;1297;21964;-58
2022/12/23 13:34:58;;;;;;;22.50;16.60;;;;;;;12.61;87.50;100230.21;106873;1298;21954;-57
2022/12/23 13:37:48;;;;;;;21.80;14.10;;;;;;;12.74;85.55;100226.39;106709;1295;358414;-58
2022/12/23 13:40:45;;;;;;;20.50;13.20;;;;;;;12.83;84.88;100228.64;106972;1292;21962;-58
2022/12/23 13:43:17;;;;;;;18.70;12.70;;;;;;;12.88;84.64;100225.34;106928;1296;21952;-58
2022/12/23 13:45:43;;;;;;;16.60;13.20;;;;;;;12.93;84.31;100223.30;106821;1296;21953;-60
2022/12/23 13:48:24;;;;;;;36.20;23.50;;;;;;;13.01;83.12;100213.08;106616;1291;21963;-60
2022/12/23 13:50:54;;;;;;;28.30;20.40;;;;;;;13.07;82.25;100213.27;106897;1293;23129;-60
2022/12/23 13:53:40;;;;;;;;;;;;;;;13.20;81.36;100216.29;106915;1296;21940;-57
2022/12/23 13:56:34;;;;;;;16.40;12.60;;;;;;;13.24;80.81;100214.06;106815;1296;21946;-59
2022/12/23 13:58:59;;;;;;;17.90;13.00;;;;;;;13.25;80.19;100217.03;106869;1296;21957;-58
2022/12/23 14:01:35;;;;;;;21.10;13.40;;;;;;;13.20;79.37;100220.86;106762;1293;21949;-59
2022/12/23 14:04:32;;;;;;;17.90;14.90;;;;;;;13.17;79.49;100225.87;106928;1296;21972;-58
2022/12/23 14:07:18;;;;;;;20.40;15.20;;;;;;;13.16;79.04;100229.07;106963;1293;21948;-58
2022/12/23 14:09:46;;;;;;;20.70;16.60;;;;;;;13.01;78.22;100231.20;107018;1296;23768;-58
2022/12/23 14:12:34;;;;;;;17.40;13.50;;;;;;;12.89;78.60;100237.64;106963;1295;21946;-58
2022/12/23 14:15:19;;;;;;;17.30;13.60;;;;;;;12.86;78.99;100239.67;106846;1296;21943;-58
2022/12/23 14:18:34;;;;;;;17.30;13.40;;;;;;;12.85;79.07;100241.63;106948;1297;23676;-58
2022/12/23 14:21:11;;;;;;;14.20;11.60;;;;;;;12.87;79.12;100241.05;106685;1286;22082;-57
2022/12/23 14:23:57;;;;;;;17.80;13.40;;;;;;;12.89;79.24;100235.73;106890;1296;21952;-58
2022/12/23 14:26:33;;;;;;;19.20;15.20;;;;;;;12.90;79.07;100238.31;106954;1296;21939;-58
2022/12/23 14:29:09;;;;;;;18.50;14.60;;;;;;;12.90;78.51;100239.02;106920;1296;21950;-57
2022/12/23 14:31:43;;;;;;;24.80;17.70;;;;;;;12.89;78.28;100234.83;106741;1297;22225;-58
2022/12/23 14:34:24;;;;;;;34.00;20.80;;;;;;;12.88;78.08;100230.98;106964;1284;21967;-58
2022/12/23 14:37:36;;;;;;;35.80;21.70;;;;;;;12.85;77.88;100233.52;106912;1296;21943;-58
2022/12/23 14:40:37;;;;;;;37.00;25.00;;;;;;;12.93;77.08;100232.80;106889;1296;21999;-58
2022/12/23 14:43:21;;;;;;;40.60;27.20;;;;;;;12.94;76.50;100231.02;106934;1296;22008;-58
2022/12/23 14:45:48;;;;;;;54.10;34.30;;;;;;;12.91;76.22;100235.16;106878;1296;21958;-58
2022/12/23 14:48:33;;;;;;;58.70;38.50;;;;;;;12.88;76.19;100236.98;106761;1297;21958;-58
2022/12/23 14:51:12;;;;;;;31.00;22.30;;;;;;;12.83;75.98;100242.72;106876;1296;21949;-58
2022/12/23 14:53:55;;;;;;;34.10;24.10;;;;;;;12.80;75.93;100246.34;106929;1296;22738;-58
2022/12/23 14:56:37;;;;;;;27.50;21.30;;;;;;;12.78;75.91;100248.67;106867;1296;21954;-58
2022/12/23 14:59:34;;;;;;;38.60;28.20;;;;;;;12.82;75.90;100247.17;106882;1296;23629;-57
2022/12/23 15:02:16;;;;;;;41.10;29.40;;;;;;;12.85;75.79;100248.66;106897;1291;21946;-58
2022/12/23 15:04:52;;;;;;;54.10;38.60;;;;;;;12.88;75.84;100246.84;106889;1296;21942;-57
2022/12/23 15:07:26;;;;;;;27.80;22.50;;;;;;;12.91;75.82;100246.24;106882;1293;21947;-56
2022/12/23 15:10:14;;;;;;;22.60;18.80;;;;;;;12.95;75.78;100247.90;106781;1296;22069;-58
2022/12/23 15:12:42;;;;;;;23.60;17.40;;;;;;;12.99;75.67;100246.59;106854;1296;21947;-57
2022/12/23 15:15:16;;;;;;;69.60;37.90;;;;;;;13.01;75.59;100243.73;106805;1296;22756;-57
2022/12/23 15:17:42;;;;;;;153.30;83.30;;;;;;;13.01;75.48;100241.07;106934;1292;21960;-58
2022/12/23 15:20:12;;;;;;;116.60;70.10;;;;;;;13.01;75.47;100238.25;106766;1297;22731;-58
2022/12/23 15:22:40;;;;;;;53.40;34.90;;;;;;;13.02;75.33;100240.16;106962;1296;21945;-58
2022/12/23 15:25:24;;;;;;;45.20;31.00;;;;;;;13.04;75.18;100242.39;106953;1291;21947;-59
2022/12/23 15:27:50;;;;;;;33.50;24.40;;;;;;;13.01;74.85;100243.35;106980;1295;22122;-59
2022/12/23 15:30:17;;;;;;;30.70;21.40;;;;;;;12.98;74.78;100248.20;106987;1296;21950;-59
2022/12/23 15:32:45;;;;;;;27.10;18.60;;;;;;;12.97;74.66;100251.39;106916;1296;21944;-59
2022/12/23 15:35:13;;;;;;;20.10;14.70;;;;;;;12.98;74.68;100252.60;106859;1297;21973;-59
2022/12/23 15:37:40;;;;;;;23.10;17.30;;;;;;;12.96;74.14;100256.70;106908;1295;23679;-59
2022/12/23 15:40:23;;;;;;;24.00;18.50;;;;;;;12.89;73.64;100255.80;106912;1295;21944;-60
2022/12/23 15:42:48;;;;;;;25.10;18.30;;;;;;;12.84;73.38;100258.20;106789;1296;21947;-58
2022/12/23 15:45:38;;;;;;;29.30;19.90;;;;;;;12.79;73.64;100261.30;106883;1296;21951;-58
2022/12/23 15:48:05;;;;;;;21.30;15.70;;;;;;;12.78;73.35;100260.82;106946;1292;21998;-58
2022/12/23 15:50:39;;;;;;;19.00;13.90;;;;;;;12.74;73.23;100263.18;106939;1295;21949;-59
2022/12/23 15:53:06;;;;;;;44.00;27.80;;;;;;;12.66;73.11;100260.38;106921;1296;23722;-58
2022/12/23 15:55:32;;;;;;;29.60;18.70;;;;;;;12.60;72.93;100263.14;106886;1296;21952;-58
2022/12/23 15:57:58;;;;;;;33.00;19.70;;;;;;;12.59;73.18;100265.63;106896;1296;21991;-59
2022/12/23 16:00:48;;;;;;;23.50;18.20;;;;;;;12.61;73.32;100270.86;106882;1296;21962;-59
2022/12/23 16:03:32;;;;;;;23.00;17.70;;;;;;;12.61;73.28;100271.05;106751;1296;21955;-59
2022/12/23 16:06:17;;;;;;;21.80;16.70;;;;;;;12.59;73.04;100274.27;106820;1296;21951;-58
2022/12/23 16:08:44;;;;;;;24.40;16.50;;;;;;;12.55;73.09;100269.95;107062;1296;21949;-59
2022/12/23 16:11:13;;;;;;;21.90;16.20;;;;;;;12.55;73.16;100268.91;106899;1295;21961;-58
2022/12/23 16:13:40;;;;;;;24.00;17.20;;;;;;;12.55;73.08;100275.59;106923;1288;23053;-59